createdAt,value
2022-11-14T00:02:32.145Z,7.03
2022-11-14T00:05:21.209Z,7.08
2022-11-14T00:08:18.338Z,7.06
2022-11-14T00:11:06.134Z,6.90
2022-11-14T00:13:55.738Z,6.88
2022-11-14T00:16:43.433Z,6.88
2022-11-14T00:19:31.158Z,6.83
2022-11-14T00:22:18.501Z,6.77
2022-11-14T00:25:06.915Z,6.74
2022-11-14T00:27:57.649Z,6.76
2022-11-14T00:30:50.035Z,7.03
2022-11-14T00:33:37.990Z,6.95
2022-11-14T00:36:25.402Z,6.95
2022-11-14T00:39:14.483Z,7.00
2022-11-14T00:42:01.995Z,6.90
2022-11-14T00:44:49.578Z,6.84
2022-11-14T00:47:38.777Z,6.77
2022-11-14T00:50:26.303Z,6.79
2022-11-14T00:53:14.286Z,6.81
2022-11-14T00:56:01.708Z,6.75
2022-11-14T00:58:49.161Z,6.80
2022-11-14T01:01:38.596Z,6.81
2022-11-14T01:04:27.184Z,6.89
2022-11-14T01:07:14.646Z,6.84
2022-11-14T01:10:02.261Z,6.84
2022-11-14T01:12:50.485Z,6.84
2022-11-14T01:15:41.554Z,6.82
2022-11-14T01:18:29.624Z,6.84
2022-11-14T01:21:19.340Z,6.97
2022-11-14T01:24:08.329Z,6.94
2022-11-14T01:26:56.957Z,7.00
2022-11-14T01:29:44.787Z,7.14
2022-11-14T01:32:32.575Z,7.06
2022-11-14T01:35:20.415Z,7.02
2022-11-14T01:38:13.282Z,6.98
2022-11-14T01:41:01.431Z,6.98
2022-11-14T01:43:49.176Z,6.94
2022-11-14T01:46:40.165Z,6.86
2022-11-14T01:49:37.268Z,6.74
2022-11-14T01:52:29.253Z,6.53
2022-11-14T01:55:18.508Z,6.34
2022-11-14T01:58:06.124Z,6.22
2022-11-14T02:00:53.610Z,6.18
2022-11-14T02:03:45.323Z,6.08
2022-11-14T02:06:33.462Z,6.00
2022-11-14T02:09:20.897Z,6.00
2022-11-14T02:12:13.952Z,5.90
2022-11-14T02:15:03.606Z,5.72
2022-11-14T02:17:51.333Z,5.52
2022-11-14T02:20:43.381Z,5.37
2022-11-14T02:23:33.730Z,5.25
2022-11-14T02:26:23.928Z,5.18
2022-11-14T02:29:12.697Z,5.05
2022-11-14T02:32:00.869Z,4.97
2022-11-14T02:34:48.666Z,4.92
2022-11-14T02:37:38.084Z,4.86
2022-11-14T02:40:25.666Z,4.79
2022-11-14T02:43:13.593Z,4.74
2022-11-14T02:46:05.652Z,4.69
2022-11-14T02:48:53.668Z,4.63
2022-11-14T02:51:41.984Z,4.65
2022-11-14T02:54:31.084Z,4.59
2022-11-14T02:57:18.726Z,4.46
2022-11-14T03:00:14.390Z,4.35
2022-11-14T03:03:02.996Z,4.32
2022-11-14T03:05:52.335Z,4.23
2022-11-14T03:08:40.162Z,4.17
2022-11-14T03:11:29.106Z,4.18
2022-11-14T03:14:16.899Z,4.12
2022-11-14T03:17:04.975Z,4.14
2022-11-14T03:19:52.503Z,4.12
2022-11-14T03:22:39.870Z,4.05
2022-11-14T03:25:27.758Z,3.96
2022-11-14T03:28:16.994Z,4.03
2022-11-14T03:31:05.583Z,3.97
2022-11-14T03:33:53.525Z,3.95
2022-11-14T03:36:41.250Z,3.91
2022-11-14T03:39:29.375Z,4.01
2022-11-14T03:42:16.582Z,4.22
2022-11-14T03:45:07.034Z,4.20
2022-11-14T03:47:56.214Z,4.15
2022-11-14T03:50:44.834Z,4.10
2022-11-14T03:53:32.458Z,4.13
2022-11-14T03:56:20.217Z,4.20
2022-11-14T03:59:08.174Z,4.19
2022-11-14T04:01:57.619Z,4.05
2022-11-14T04:04:45.399Z,4.02
2022-11-14T04:07:32.966Z,3.84
2022-11-14T04:10:20.924Z,3.71
2022-11-14T04:13:08.676Z,3.57
2022-11-14T04:15:57.478Z,3.48
2022-11-14T04:18:46.841Z,3.48
2022-11-14T04:21:34.222Z,3.48
2022-11-14T04:24:21.919Z,3.42
2022-11-14T04:27:09.375Z,3.38
2022-11-14T04:29:56.746Z,3.32
2022-11-14T04:32:47.964Z,3.56
2022-11-14T04:35:37.048Z,3.93
2022-11-14T04:38:24.995Z,3.88
2022-11-14T04:41:12.409Z,3.78
2022-11-14T04:43:59.663Z,3.87
2022-11-14T04:46:47.444Z,3.99
2022-11-14T04:49:35.380Z,4.15
2022-11-14T04:52:24.476Z,4.13
2022-11-14T04:55:12.114Z,4.14
2022-11-14T04:58:00.068Z,4.19
2022-11-14T05:00:47.555Z,4.18
2022-11-14T05:03:35.546Z,4.21
2022-11-14T05:06:23.431Z,4.18
2022-11-14T05:09:12.678Z,4.21
2022-11-14T05:12:00.589Z,4.30
2022-11-14T05:14:48.809Z,4.43
2022-11-14T05:17:36.474Z,4.41
2022-11-14T05:20:23.737Z,4.41
2022-11-14T05:23:22.369Z,4.46
2022-11-14T05:26:14.523Z,4.50
2022-11-14T05:29:02.419Z,4.52
2022-11-14T05:31:49.858Z,4.53
2022-11-14T05:34:37.607Z,4.55
2022-11-14T05:37:25.156Z,4.63
2022-11-14T05:40:13.455Z,4.70
2022-11-14T05:43:02.264Z,4.79
2022-11-14T05:45:49.981Z,4.83
2022-11-14T05:48:38.525Z,4.93
2022-11-14T05:51:26.384Z,4.97
2022-11-14T05:54:13.856Z,5.00
2022-11-14T05:57:01.255Z,5.07
2022-11-14T05:59:50.494Z,5.10
2022-11-14T06:02:38.391Z,5.15
2022-11-14T06:05:26.128Z,5.21
2022-11-14T06:08:14.009Z,5.25
2022-11-14T06:11:05.058Z,5.25
2022-11-14T06:13:53.066Z,5.23
2022-11-14T06:16:42.211Z,5.29
2022-11-14T06:19:29.832Z,5.43
2022-11-14T06:22:17.749Z,5.44
2022-11-14T06:25:05.892Z,5.50
2022-11-14T06:27:53.552Z,5.58
2022-11-14T06:30:41.459Z,5.53
2022-11-14T06:33:35.640Z,5.53
2022-11-14T06:36:23.037Z,5.58
2022-11-14T06:39:10.681Z,5.71
2022-11-14T06:41:58.087Z,5.75
2022-11-14T06:44:45.659Z,5.82
2022-11-14T06:47:33.248Z,5.93
2022-11-14T06:50:22.283Z,6.10
2022-11-14T06:53:10.142Z,6.12
2022-11-14T06:55:59.893Z,6.12
2022-11-14T06:58:50.422Z,6.27
2022-11-14T07:01:37.921Z,6.31
2022-11-14T07:04:25.270Z,6.37
2022-11-14T07:07:14.220Z,6.44
2022-11-14T07:10:02.224Z,6.51
2022-11-14T07:12:50.074Z,6.60
2022-11-14T07:15:38.105Z,6.67
2022-11-14T07:18:26.141Z,6.74
2022-11-14T07:21:14.567Z,6.83
2022-11-14T07:24:03.936Z,6.84
2022-11-14T07:26:57.868Z,6.89
2022-11-14T07:29:45.639Z,6.94
2022-11-14T07:32:33.321Z,6.68
2022-11-14T07:35:21.094Z,6.99
2022-11-14T07:38:08.413Z,7.14
2022-11-14T07:41:00.068Z,7.38
2022-11-14T07:43:48.333Z,7.46
2022-11-14T07:46:35.844Z,7.49
2022-11-14T07:49:23.580Z,7.61
2022-11-14T07:52:10.862Z,7.76
2022-11-14T07:54:58.575Z,7.92
2022-11-14T07:57:49.352Z,8.03
2022-11-14T08:00:38.045Z,8.29
2022-11-14T08:03:26.382Z,8.55
2022-11-14T08:06:17.001Z,8.78
2022-11-14T08:09:06.447Z,8.96
2022-11-14T08:11:54.437Z,9.33
2022-11-14T08:14:43.694Z,9.65
2022-11-14T08:17:31.288Z,9.90
2022-11-14T08:20:18.998Z,10.19
2022-11-14T08:23:07.769Z,10.30
2022-11-14T08:25:59.747Z,10.45
2022-11-14T08:28:47.197Z,10.50
2022-11-14T08:31:36.103Z,10.68
2022-11-14T08:34:23.939Z,10.59
2022-11-14T08:37:11.660Z,10.51
2022-11-14T08:40:00.097Z,10.63
2022-11-14T08:42:47.958Z,10.57
2022-11-14T08:45:35.779Z,10.63
2022-11-14T08:48:25.135Z,10.67
2022-11-14T08:51:13.164Z,10.62
2022-11-14T08:54:01.002Z,10.55
2022-11-14T08:56:48.567Z,10.42
2022-11-14T08:59:36.023Z,10.29
2022-11-14T09:02:23.446Z,10.13
2022-11-14T09:05:12.555Z,10.25
2022-11-14T09:08:00.314Z,10.43
2022-11-14T09:10:48.534Z,10.58
2022-11-14T09:13:38.747Z,11.17
2022-11-14T09:16:26.556Z,11.15
2022-11-14T09:19:14.158Z,10.87
2022-11-14T09:22:03.182Z,10.58
2022-11-14T09:24:52.112Z,10.46
2022-11-14T09:27:39.617Z,10.38
2022-11-14T09:30:26.750Z,10.24
2022-11-14T09:33:13.698Z,10.09
2022-11-14T09:36:01.957Z,9.90
2022-11-14T09:38:52.391Z,9.84
2022-11-14T09:41:51.815Z,10.01
2022-11-14T09:44:50.716Z,10.10
2022-11-14T09:47:40.680Z,10.23
2022-11-14T09:50:31.518Z,10.43
2022-11-14T09:53:24.468Z,10.51
2022-11-14T09:56:17.108Z,10.72
2022-11-14T09:59:04.508Z,10.77
2022-11-14T10:01:58.426Z,10.87
2022-11-14T10:04:53.001Z,10.93
2022-11-14T10:07:47.899Z,11.15
2022-11-14T10:10:48.210Z,11.48
2022-11-14T10:14:00.735Z,11.68
2022-11-14T10:16:53.228Z,11.90
2022-11-14T10:19:45.677Z,11.82
2022-11-14T10:22:50.086Z,11.57
2022-11-14T10:25:47.198Z,11.33
2022-11-14T10:28:49.905Z,11.33
2022-11-14T10:31:45.326Z,11.15
2022-11-14T10:34:39.207Z,11.04
2022-11-14T10:37:30.873Z,11.11
2022-11-14T10:40:20.965Z,11.09
2022-11-14T10:43:17.796Z,11.04
2022-11-14T10:46:11.719Z,11.19
2022-11-14T10:49:00.663Z,11.29
2022-11-14T10:51:51.514Z,11.48
2022-11-14T10:54:42.979Z,11.95
2022-11-14T10:57:31.443Z,12.41
2022-11-14T11:00:23.047Z,12.70
2022-11-14T11:03:12.113Z,12.99
2022-11-14T11:05:59.880Z,13.18
2022-11-14T11:09:04.446Z,13.40
2022-11-14T11:11:57.771Z,13.63
2022-11-14T11:14:46.661Z,13.89
2022-11-14T11:17:40.301Z,14.10
2022-11-14T11:20:34.617Z,14.14
2022-11-14T11:23:25.380Z,14.18
2022-11-14T11:26:20.838Z,14.43
2022-11-14T11:29:16.638Z,15.10
2022-11-14T11:32:04.316Z,15.81
2022-11-14T11:34:53.033Z,15.85
2022-11-14T11:37:45.695Z,15.84
2022-11-14T11:40:34.431Z,15.70
2022-11-14T11:43:44.162Z,15.67
2022-11-14T11:46:36.357Z,15.61
2022-11-14T11:49:29.527Z,15.64
2022-11-14T11:52:22.584Z,15.90
2022-11-14T11:55:19.103Z,15.99
2022-11-14T11:58:08.189Z,16.17
2022-11-14T12:00:56.081Z,15.70
2022-11-14T12:03:48.022Z,15.49
2022-11-14T12:06:40.866Z,15.28
2022-11-14T12:10:03.174Z,14.90
2022-11-14T12:13:00.084Z,14.19
2022-11-14T12:15:54.246Z,13.49
2022-11-14T12:19:05.545Z,13.25
2022-11-14T12:22:17.573Z,13.34
2022-11-14T12:25:32.443Z,13.14
2022-11-14T12:28:36.771Z,13.24
2022-11-14T12:31:24.118Z,13.51
2022-11-14T12:34:22.953Z,13.87
2022-11-14T12:37:14.774Z,14.28
2022-11-14T12:40:04.194Z,14.54
2022-11-14T12:42:52.280Z,15.07
2022-11-14T12:46:01.311Z,15.40
2022-11-14T12:48:49.039Z,15.01
2022-11-14T12:51:52.878Z,14.53
2022-11-14T12:54:44.700Z,14.18
2022-11-14T12:57:50.307Z,13.90
2022-11-14T13:00:40.931Z,13.59
2022-11-14T13:03:40.370Z,13.76
2022-11-14T13:06:34.910Z,14.62
2022-11-14T13:09:43.098Z,15.78
2022-11-14T13:12:51.042Z,15.77
2022-11-14T13:16:06.562Z,15.99
2022-11-14T13:19:20.124Z,16.63
2022-11-14T13:22:40.665Z,16.92
2022-11-14T13:25:27.952Z,16.50
2022-11-14T13:28:48.649Z,16.99
2022-11-14T13:31:52.393Z,17.02
2022-11-14T13:34:51.690Z,16.47
2022-11-14T13:38:07.070Z,16.28
2022-11-14T13:41:00.990Z,16.55
2022-11-14T13:44:04.881Z,17.12
2022-11-14T13:47:18.163Z,17.51
2022-11-14T13:50:08.898Z,18.58
2022-11-14T13:52:56.768Z,18.89
2022-11-14T13:55:57.754Z,19.28
2022-11-14T13:59:06.305Z,19.28
2022-11-14T14:02:09.379Z,18.84
2022-11-14T14:05:07.425Z,18.71
2022-11-14T14:08:06.310Z,18.57
2022-11-14T14:11:06.171Z,18.47
2022-11-14T14:13:59.957Z,18.52
2022-11-14T14:16:51.936Z,17.31
2022-11-14T14:19:49.663Z,15.56
2022-11-14T14:22:42.261Z,14.29
2022-11-14T14:25:35.629Z,14.01
2022-11-14T14:28:31.710Z,13.90
2022-11-14T14:31:20.812Z,14.49
2022-11-14T14:34:23.540Z,14.57
2022-11-14T14:37:18.716Z,13.68
2022-11-14T14:40:11.145Z,12.75
2022-11-14T14:42:59.935Z,11.91
2022-11-14T14:45:49.502Z,11.17
2022-11-14T14:48:40.178Z,10.69
2022-11-14T14:51:38.949Z,10.39
2022-11-14T14:54:29.369Z,10.13
2022-11-14T14:57:23.021Z,9.90
2022-11-14T15:00:23.071Z,9.83
2022-11-14T15:03:11.516Z,9.82
2022-11-14T15:06:03.030Z,9.76
2022-11-14T15:08:50.775Z,9.70
2022-11-14T15:11:42.443Z,9.70
2022-11-14T15:14:31.974Z,9.68
2022-11-14T15:17:21.169Z,9.64
2022-11-14T15:20:22.299Z,9.58
2022-11-14T15:23:20.601Z,9.54
2022-11-14T15:26:14.571Z,9.42
2022-11-14T15:29:07.839Z,9.33
2022-11-14T15:31:57.129Z,9.28
2022-11-14T15:35:05.846Z,9.18
2022-11-14T15:41:23.107Z,8.96
2022-11-14T15:44:30.388Z,8.96
2022-11-14T15:47:23.665Z,9.03
2022-11-14T15:50:29.095Z,9.06
2022-11-14T15:53:23.994Z,9.07
2022-11-14T15:56:13.960Z,9.03
2022-11-14T15:59:01.435Z,8.97
2022-11-14T16:01:51.471Z,8.96
2022-11-14T16:04:43.073Z,8.94
2022-11-14T16:07:36.139Z,8.90
2022-11-14T16:10:25.210Z,8.92
2022-11-14T16:13:12.590Z,8.84
2022-11-14T16:15:59.786Z,8.78
2022-11-14T16:18:46.879Z,8.81
2022-11-14T16:21:34.593Z,8.66
2022-11-14T16:24:26.711Z,8.70
2022-11-14T16:27:16.836Z,8.68
2022-11-14T16:30:04.601Z,8.73
2022-11-14T16:32:52.753Z,8.74
2022-11-14T16:35:40.002Z,8.77
2022-11-14T16:38:27.446Z,8.71
2022-11-14T16:41:16.779Z,8.71
2022-11-14T16:44:03.898Z,8.76
2022-11-14T16:46:51.475Z,8.78
2022-11-14T16:49:39.200Z,8.79
2022-11-14T16:52:26.703Z,8.81
2022-11-14T16:55:13.995Z,8.83
2022-11-14T16:58:02.774Z,8.86
2022-11-14T17:00:49.966Z,8.85
2022-11-14T17:03:37.543Z,8.81
2022-11-14T17:06:25.645Z,8.74
2022-11-14T17:09:14.777Z,8.74
2022-11-14T17:12:02.229Z,8.78
2022-11-14T17:14:51.290Z,8.76
2022-11-14T17:17:38.494Z,8.75
2022-11-14T17:20:25.898Z,8.72
2022-11-14T17:23:13.809Z,8.69
2022-11-14T17:26:05.104Z,8.69
2022-11-14T17:28:52.441Z,8.72
2022-11-14T17:31:46.688Z,8.70
2022-11-14T17:34:34.490Z,8.64
2022-11-14T17:37:21.916Z,8.58
2022-11-14T17:40:15.278Z,8.60
2022-11-14T17:43:02.911Z,8.59
2022-11-14T17:45:56.223Z,8.62
2022-11-14T17:48:45.350Z,8.61
2022-11-14T17:51:33.689Z,8.60
2022-11-14T17:54:21.030Z,8.58
2022-11-14T17:57:08.607Z,8.61
2022-11-14T17:59:57.768Z,8.61
2022-11-14T18:02:45.258Z,8.57
2022-11-14T18:05:33.902Z,8.53
2022-11-14T18:08:20.937Z,8.55
2022-11-14T18:11:11.262Z,8.57
2022-11-14T18:13:59.493Z,8.53
2022-11-14T18:17:11.337Z,8.49
2022-11-14T18:19:56.164Z,8.53
2022-11-14T18:22:44.956Z,8.60
2022-11-14T18:25:32.788Z,8.63
2022-11-14T18:28:20.093Z,8.64
2022-11-14T18:31:10.951Z,8.62
2022-11-14T18:33:58.424Z,8.62
2022-11-14T18:36:45.985Z,8.63
2022-11-14T18:39:35.019Z,8.65
2022-11-14T18:42:22.339Z,8.66
2022-11-14T18:45:10.517Z,8.64
2022-11-14T18:47:59.699Z,8.64
2022-11-14T18:50:46.877Z,8.63
2022-11-14T18:53:34.410Z,8.65
2022-11-14T18:56:27.917Z,8.62
2022-11-14T18:59:15.405Z,8.58
2022-11-14T19:02:02.871Z,8.56
2022-11-14T19:04:52.086Z,8.60
2022-11-14T19:07:39.273Z,8.65
2022-11-14T19:10:27.100Z,8.65
2022-11-14T19:13:15.878Z,8.65
2022-11-14T19:16:03.319Z,8.64
2022-11-14T19:18:50.831Z,8.62
2022-11-14T19:21:39.026Z,8.61
2022-11-14T19:24:27.128Z,8.67
2022-11-14T19:27:17.418Z,8.59
2022-11-14T19:30:08.562Z,8.59
2022-11-14T19:32:55.967Z,8.60
2022-11-14T19:35:46.859Z,8.56
2022-11-14T19:38:36.633Z,8.55
2022-11-14T19:41:29.530Z,8.61
2022-11-14T19:44:17.002Z,8.54
2022-11-14T19:47:06.910Z,8.54
2022-11-14T19:49:54.424Z,8.59
2022-11-14T19:52:43.830Z,8.58
2022-11-14T19:55:32.201Z,8.55
2022-11-14T19:58:19.758Z,8.55
2022-11-14T20:01:08.948Z,8.50
2022-11-14T20:03:58.935Z,8.49
2022-11-14T20:06:46.395Z,8.48
2022-11-14T20:09:33.881Z,8.43
2022-11-14T20:12:20.926Z,8.46
2022-11-14T20:15:09.118Z,8.50
2022-11-14T20:17:56.415Z,8.46
2022-11-14T20:20:45.649Z,8.40
2022-11-14T20:23:33.767Z,8.36
2022-11-14T20:26:22.416Z,8.42
2022-11-14T20:29:10.149Z,8.50
2022-11-14T20:31:58.167Z,8.47
2022-11-14T20:34:45.949Z,8.39
2022-11-14T20:37:34.937Z,8.36
2022-11-14T20:40:26.108Z,8.43
2022-11-14T20:43:13.268Z,8.46
2022-11-14T20:46:02.129Z,8.48
2022-11-14T20:48:50.049Z,8.72
2022-11-14T20:51:39.649Z,8.57
2022-11-14T20:54:28.467Z,8.54
2022-11-14T20:57:16.050Z,8.53
2022-11-14T21:00:03.290Z,8.47
2022-11-14T21:02:50.502Z,8.45
2022-11-14T21:05:39.693Z,8.45
2022-11-14T21:08:29.677Z,8.42
2022-11-14T21:11:19.226Z,8.38
2022-11-14T21:14:06.788Z,8.39
2022-11-14T21:16:53.813Z,8.43
2022-11-14T21:19:41.779Z,8.48
2022-11-14T21:22:29.150Z,8.51
2022-11-14T21:25:16.133Z,8.55
2022-11-14T21:28:04.975Z,8.50
2022-11-14T21:30:52.038Z,8.49
2022-11-14T21:33:39.542Z,8.46
2022-11-14T21:39:34.830Z,8.39
2022-11-14T21:42:22.441Z,8.36
2022-11-14T21:45:12.114Z,8.29
2022-11-14T21:47:59.378Z,8.26
2022-11-14T21:50:47.295Z,8.25
2022-11-14T21:53:34.888Z,8.25
2022-11-14T21:56:24.274Z,8.30
2022-11-14T21:59:15.603Z,8.33
2022-11-14T22:02:22.150Z,8.37
2022-11-14T22:05:09.584Z,8.32
2022-11-14T22:07:57.022Z,8.28
2022-11-14T22:10:44.548Z,8.22
2022-11-14T22:13:32.670Z,8.15
2022-11-14T22:16:20.940Z,8.11
2022-11-14T22:19:09.814Z,8.07
2022-11-14T22:21:56.945Z,8.01
2022-11-14T22:24:44.204Z,7.93
2022-11-14T22:27:31.474Z,7.88
2022-11-14T22:30:18.879Z,7.81
2022-11-14T22:33:06.204Z,7.68
2022-11-14T22:35:55.156Z,7.57
2022-11-14T22:38:43.619Z,7.46
2022-11-14T22:41:33.477Z,7.36
2022-11-14T22:44:21.632Z,7.26
2022-11-14T22:47:08.758Z,7.15
2022-11-14T22:49:55.759Z,7.04
2022-11-14T22:52:44.240Z,6.96
2022-11-14T22:55:31.491Z,6.89
2022-11-14T22:58:18.816Z,6.91
2022-11-14T23:01:12.338Z,6.94
2022-11-14T23:04:01.492Z,7.00
2022-11-14T23:06:48.895Z,6.97
2022-11-14T23:09:37.547Z,6.92
2022-11-14T23:12:25.419Z,6.92
2022-11-14T23:15:12.854Z,6.90
2022-11-14T23:18:00.719Z,6.91
2022-11-14T23:20:48.137Z,6.93
2022-11-14T23:23:35.435Z,6.88
2022-11-14T23:26:24.837Z,6.89
2022-11-14T23:29:14.232Z,6.93
2022-11-14T23:32:01.626Z,6.97
2022-11-14T23:34:49.077Z,7.05
2022-11-14T23:37:36.671Z,7.14
2022-11-14T23:40:24.042Z,7.19
2022-11-14T23:43:12.936Z,7.30
2022-11-14T23:46:00.618Z,7.36
2022-11-14T23:48:48.134Z,7.45
2022-11-14T23:51:35.830Z,7.44
2022-11-14T23:54:23.493Z,7.49
2022-11-14T23:57:10.883Z,7.55
2022-11-14T23:59:59.909Z,7.64
